sensor_id;sensor_type;location;lat;lon;timestamp;temperature;humidity
18091;DHT22;9172;49.948;9.208;2023-04-24T00:02:00;12.00;99.90
18091;DHT22;9172;49.948;9.208;2023-04-24T00:04:28;12.00;99.90
18091;DHT22;9172;49.948;9.208;2023-04-24T00:06:57;12.00;99.90
18091;DHT22;9172;49.948;9.208;2023-04-24T00:09:27;11.90;99.90
18091;DHT22;9172;49.948;9.208;2023-04-24T00:11:56;11.90;99.90
18091;DHT22;9172;49.948;9.208;2023-04-24T00:14:26;11.90;99.90
18091;DHT22;9172;49.948;9.208;2023-04-24T00:16:56;11.80;99.90
18091;DHT22;9172;49.948;9.208;2023-04-24T00:19:25;11.80;99.90
18091;DHT22;9172;49.948;9.208;2023-04-24T00:21:53;11.80;99.90
18091;DHT22;9172;49.948;9.208;2023-04-24T00:24:23;11.80;99.90
18091;DHT22;9172;49.948;9.208;2023-04-24T00:26:51;11.80;99.90
18091;DHT22;9172;49.948;9.208;2023-04-24T00:29:20;11.80;99.90
18091;DHT22;9172;49.948;9.208;2023-04-24T00:31:51;11.80;99.90
18091;DHT22;9172;49.948;9.208;2023-04-24T00:34:20;11.80;99.90
18091;DHT22;9172;49.948;9.208;2023-04-24T00:36:49;11.70;99.90
18091;DHT22;9172;49.948;9.208;2023-04-24T00:39:19;11.80;99.90
18091;DHT22;9172;49.948;9.208;2023-04-24T00:41:50;11.80;99.90
18091;DHT22;9172;49.948;9.208;2023-04-24T00:44:20;11.80;99.90
18091;DHT22;9172;49.948;9.208;2023-04-24T00:46:50;11.80;99.90
18091;DHT22;9172;49.948;9.208;2023-04-24T00:49:21;11.80;99.90
18091;DHT22;9172;49.948;9.208;2023-04-24T00:51:50;11.80;99.90
18091;DHT22;9172;49.948;9.208;2023-04-24T00:54:19;11.80;99.90
18091;DHT22;9172;49.948;9.208;2023-04-24T00:56:47;11.80;99.90
18091;DHT22;9172;49.948;9.208;2023-04-24T00:59:17;11.80;99.90
18091;DHT22;9172;49.948;9.208;2023-04-24T01:01:47;11.80;99.90
18091;DHT22;9172;49.948;9.208;2023-04-24T01:04:18;11.80;99.90
18091;DHT22;9172;49.948;9.208;2023-04-24T01:06:51;11.80;99.90
18091;DHT22;9172;49.948;9.208;2023-04-24T01:09:22;11.80;99.90
18091;DHT22;9172;49.948;9.208;2023-04-24T01:11:51;11.70;99.90
18091;DHT22;9172;49.948;9.208;2023-04-24T01:14:20;11.70;99.90
18091;DHT22;9172;49.948;9.208;2023-04-24T01:16:49;11.70;99.90
18091;DHT22;9172;49.948;9.208;2023-04-24T01:19:20;11.70;99.90
18091;DHT22;9172;49.948;9.208;2023-04-24T01:21:50;11.70;99.90
18091;DHT22;9172;49.948;9.208;2023-04-24T01:24:20;11.60;99.90
18091;DHT22;9172;49.948;9.208;2023-04-24T01:26:49;11.60;99.90
18091;DHT22;9172;49.948;9.208;2023-04-24T01:29:18;11.60;99.90
18091;DHT22;9172;49.948;9.208;2023-04-24T01:31:46;11.60;99.90
18091;DHT22;9172;49.948;9.208;2023-04-24T01:34:15;11.60;99.90
18091;DHT22;9172;49.948;9.208;2023-04-24T01:36:46;11.60;99.90
18091;DHT22;9172;49.948;9.208;2023-04-24T01:39:23;11.60;99.90
18091;DHT22;9172;49.948;9.208;2023-04-24T01:41:54;11.60;99.90
18091;DHT22;9172;49.948;9.208;2023-04-24T01:44:23;11.70;99.90
18091;DHT22;9172;49.948;9.208;2023-04-24T01:46:52;11.70;99.90
18091;DHT22;9172;49.948;9.208;2023-04-24T01:49:21;11.70;99.90
18091;DHT22;9172;49.948;9.208;2023-04-24T01:51:52;11.70;99.90
18091;DHT22;9172;49.948;9.208;2023-04-24T01:54:21;11.70;99.90
18091;DHT22;9172;49.948;9.208;2023-04-24T01:56:51;11.70;99.90
18091;DHT22;9172;49.948;9.208;2023-04-24T01:59:22;11.70;99.90
18091;DHT22;9172;49.948;9.208;2023-04-24T02:01:51;11.70;99.90
18091;DHT22;9172;49.948;9.208;2023-04-24T02:04:20;11.70;99.90
18091;DHT22;9172;49.948;9.208;2023-04-24T02:06:49;11.70;99.90
18091;DHT22;9172;49.948;9.208;2023-04-24T02:09:18;11.70;99.90
18091;DHT22;9172;49.948;9.208;2023-04-24T02:11:48;11.70;99.90
18091;DHT22;9172;49.948;9.208;2023-04-24T02:14:16;11.70;99.90
18091;DHT22;9172;49.948;9.208;2023-04-24T02:16:46;11.70;99.90
18091;DHT22;9172;49.948;9.208;2023-04-24T02:19:17;11.70;99.90
18091;DHT22;9172;49.948;9.208;2023-04-24T02:21:46;11.70;99.90
18091;DHT22;9172;49.948;9.208;2023-04-24T02:24:15;11.70;99.90
18091;DHT22;9172;49.948;9.208;2023-04-24T02:26:43;11.70;99.90
18091;DHT22;9172;49.948;9.208;2023-04-24T02:29:12;11.70;99.90
18091;DHT22;9172;49.948;9.208;2023-04-24T02:31:41;11.70;99.90
18091;DHT22;9172;49.948;9.208;2023-04-24T02:34:10;11.70;99.90
18091;DHT22;9172;49.948;9.208;2023-04-24T02:36:39;11.70;99.90
18091;DHT22;9172;49.948;9.208;2023-04-24T02:39:07;11.70;99.90
18091;DHT22;9172;49.948;9.208;2023-04-24T02:41:36;11.60;99.90
18091;DHT22;9172;49.948;9.208;2023-04-24T02:44:04;11.70;99.90
18091;DHT22;9172;49.948;9.208;2023-04-24T02:46:34;11.70;99.90
18091;DHT22;9172;49.948;9.208;2023-04-24T02:49:03;11.70;99.90
18091;DHT22;9172;49.948;9.208;2023-04-24T02:51:32;11.70;99.90
18091;DHT22;9172;49.948;9.208;2023-04-24T02:54:02;11.70;99.90
18091;DHT22;9172;49.948;9.208;2023-04-24T02:56:33;11.70;99.90
18091;DHT22;9172;49.948;9.208;2023-04-24T02:59:02;11.70;99.90
18091;DHT22;9172;49.948;9.208;2023-04-24T03:01:31;11.70;99.90
18091;DHT22;9172;49.948;9.208;2023-04-24T03:03:59;11.70;99.90
18091;DHT22;9172;49.948;9.208;2023-04-24T03:06:28;11.60;99.90
18091;DHT22;9172;49.948;9.208;2023-04-24T03:09:00;11.60;99.90
18091;DHT22;9172;49.948;9.208;2023-04-24T03:11:30;11.70;99.90
18091;DHT22;9172;49.948;9.208;2023-04-24T03:14:01;11.70;99.90
18091;DHT22;9172;49.948;9.208;2023-04-24T03:16:30;11.70;99.90
18091;DHT22;9172;49.948;9.208;2023-04-24T03:19:00;11.70;99.90
18091;DHT22;9172;49.948;9.208;2023-04-24T03:21:30;11.70;99.90
18091;DHT22;9172;49.948;9.208;2023-04-24T03:24:01;11.70;99.90
18091;DHT22;9172;49.948;9.208;2023-04-24T03:26:31;11.70;99.90
18091;DHT22;9172;49.948;9.208;2023-04-24T03:28:59;11.70;99.90
18091;DHT22;9172;49.948;9.208;2023-04-24T03:31:29;11.60;99.90
18091;DHT22;9172;49.948;9.208;2023-04-24T03:33:57;11.60;99.90
18091;DHT22;9172;49.948;9.208;2023-04-24T03:36:27;11.60;99.90
18091;DHT22;9172;49.948;9.208;2023-04-24T03:38:57;11.60;99.90
18091;DHT22;9172;49.948;9.208;2023-04-24T03:41:25;11.60;99.90
18091;DHT22;9172;49.948;9.208;2023-04-24T03:43:54;11.60;99.90
18091;DHT22;9172;49.948;9.208;2023-04-24T03:46:23;11.60;99.90
18091;DHT22;9172;49.948;9.208;2023-04-24T03:48:53;11.50;99.90
18091;DHT22;9172;49.948;9.208;2023-04-24T03:51:21;11.50;99.90
18091;DHT22;9172;49.948;9.208;2023-04-24T03:53:50;11.40;99.90
18091;DHT22;9172;49.948;9.208;2023-04-24T03:56:19;11.40;99.90
18091;DHT22;9172;49.948;9.208;2023-04-24T03:58:50;11.40;99.90
18091;DHT22;9172;49.948;9.208;2023-04-24T04:01:18;11.30;99.90
18091;DHT22;9172;49.948;9.208;2023-04-24T04:03:48;11.30;99.90
18091;DHT22;9172;49.948;9.208;2023-04-24T04:06:16;11.30;99.90
18091;DHT22;9172;49.948;9.208;2023-04-24T04:08:47;11.30;99.90
18091;DHT22;9172;49.948;9.208;2023-04-24T04:11:18;11.30;99.90
18091;DHT22;9172;49.948;9.208;2023-04-24T04:13:48;11.10;99.90
18091;DHT22;9172;49.948;9.208;2023-04-24T04:16:16;11.10;99.90
18091;DHT22;9172;49.948;9.208;2023-04-24T04:18:45;11.00;99.90
18091;DHT22;9172;49.948;9.208;2023-04-24T04:21:15;10.90;99.90
18091;DHT22;9172;49.948;9.208;2023-04-24T04:23:45;11.00;99.90
18091;DHT22;9172;49.948;9.208;2023-04-24T04:26:13;10.90;99.90
18091;DHT22;9172;49.948;9.208;2023-04-24T04:28:43;11.00;99.90
18091;DHT22;9172;49.948;9.208;2023-04-24T04:31:12;11.00;99.90
18091;DHT22;9172;49.948;9.208;2023-04-24T04:33:40;11.00;99.90
18091;DHT22;9172;49.948;9.208;2023-04-24T04:36:09;11.00;99.90
18091;DHT22;9172;49.948;9.208;2023-04-24T04:38:39;11.00;99.90
18091;DHT22;9172;49.948;9.208;2023-04-24T04:41:08;11.00;99.90
18091;DHT22;9172;49.948;9.208;2023-04-24T04:43:38;10.90;99.90
18091;DHT22;9172;49.948;9.208;2023-04-24T04:46:08;10.80;99.90
18091;DHT22;9172;49.948;9.208;2023-04-24T04:48:40;10.80;99.90
18091;DHT22;9172;49.948;9.208;2023-04-24T04:51:08;10.80;99.90
18091;DHT22;9172;49.948;9.208;2023-04-24T04:53:38;10.80;99.90
18091;DHT22;9172;49.948;9.208;2023-04-24T04:56:06;10.80;99.90
18091;DHT22;9172;49.948;9.208;2023-04-24T04:58:37;10.80;99.90
18091;DHT22;9172;49.948;9.208;2023-04-24T05:01:06;10.90;99.90
18091;DHT22;9172;49.948;9.208;2023-04-24T05:03:37;10.80;99.90
18091;DHT22;9172;49.948;9.208;2023-04-24T05:06:07;10.80;99.90
18091;DHT22;9172;49.948;9.208;2023-04-24T05:08:37;10.70;99.90
18091;DHT22;9172;49.948;9.208;2023-04-24T05:11:06;10.60;99.90
18091;DHT22;9172;49.948;9.208;2023-04-24T05:13:36;10.50;99.90
18091;DHT22;9172;49.948;9.208;2023-04-24T05:16:05;10.40;99.90
18091;DHT22;9172;49.948;9.208;2023-04-24T05:18:34;10.40;99.90
18091;DHT22;9172;49.948;9.208;2023-04-24T05:21:08;10.40;99.90
18091;DHT22;9172;49.948;9.208;2023-04-24T05:23:46;10.40;99.90
18091;DHT22;9172;49.948;9.208;2023-04-24T05:26:17;10.50;99.90
18091;DHT22;9172;49.948;9.208;2023-04-24T05:28:46;10.50;99.90
18091;DHT22;9172;49.948;9.208;2023-04-24T05:31:16;10.50;99.90
18091;DHT22;9172;49.948;9.208;2023-04-24T05:33:45;10.40;99.90
18091;DHT22;9172;49.948;9.208;2023-04-24T05:39:00;10.50;99.90
18091;DHT22;9172;49.948;9.208;2023-04-24T05:41:30;10.50;99.90
18091;DHT22;9172;49.948;9.208;2023-04-24T05:43:59;10.50;99.90
18091;DHT22;9172;49.948;9.208;2023-04-24T05:46:28;10.50;99.90
18091;DHT22;9172;49.948;9.208;2023-04-24T05:48:59;10.50;99.90
18091;DHT22;9172;49.948;9.208;2023-04-24T05:51:28;10.50;99.90
18091;DHT22;9172;49.948;9.208;2023-04-24T05:53:57;10.50;99.90
18091;DHT22;9172;49.948;9.208;2023-04-24T05:56:26;10.40;99.90
18091;DHT22;9172;49.948;9.208;2023-04-24T05:58:55;10.50;99.90
18091;DHT22;9172;49.948;9.208;2023-04-24T06:01:25;10.60;99.90
18091;DHT22;9172;49.948;9.208;2023-04-24T06:03:55;10.60;99.90
18091;DHT22;9172;49.948;9.208;2023-04-24T06:06:24;10.60;99.90
18091;DHT22;9172;49.948;9.208;2023-04-24T06:08:54;10.60;99.90
18091;DHT22;9172;49.948;9.208;2023-04-24T06:11:23;10.70;99.90
18091;DHT22;9172;49.948;9.208;2023-04-24T06:13:52;10.60;99.90
18091;DHT22;9172;49.948;9.208;2023-04-24T06:16:20;10.70;99.90
18091;DHT22;9172;49.948;9.208;2023-04-24T06:18:49;10.70;99.90
18091;DHT22;9172;49.948;9.208;2023-04-24T06:21:18;10.70;99.90
18091;DHT22;9172;49.948;9.208;2023-04-24T06:23:57;10.70;99.90
18091;DHT22;9172;49.948;9.208;2023-04-24T06:26:26;10.80;99.90
18091;DHT22;9172;49.948;9.208;2023-04-24T06:28:57;10.90;99.90
18091;DHT22;9172;49.948;9.208;2023-04-24T06:34:04;11.10;99.90
18091;DHT22;9172;49.948;9.208;2023-04-24T06:36:34;11.10;99.90
18091;DHT22;9172;49.948;9.208;2023-04-24T06:39:03;11.10;99.90
18091;DHT22;9172;49.948;9.208;2023-04-24T06:41:35;11.20;99.90
18091;DHT22;9172;49.948;9.208;2023-04-24T06:44:03;11.30;99.90
18091;DHT22;9172;49.948;9.208;2023-04-24T06:46:33;11.40;99.90
18091;DHT22;9172;49.948;9.208;2023-04-24T06:49:02;11.50;99.90
18091;DHT22;9172;49.948;9.208;2023-04-24T06:51:33;11.60;99.90
18091;DHT22;9172;49.948;9.208;2023-04-24T06:54:02;11.70;99.90
18091;DHT22;9172;49.948;9.208;2023-04-24T06:56:32;11.80;99.90
18091;DHT22;9172;49.948;9.208;2023-04-24T06:59:01;11.70;99.90
18091;DHT22;9172;49.948;9.208;2023-04-24T07:01:31;11.80;99.90
18091;DHT22;9172;49.948;9.208;2023-04-24T07:03:59;11.80;99.90
18091;DHT22;9172;49.948;9.208;2023-04-24T07:06:28;11.70;99.90
18091;DHT22;9172;49.948;9.208;2023-04-24T07:08:58;11.60;99.90
18091;DHT22;9172;49.948;9.208;2023-04-24T07:11:27;11.60;99.90
18091;DHT22;9172;49.948;9.208;2023-04-24T07:13:57;11.40;99.90
18091;DHT22;9172;49.948;9.208;2023-04-24T07:16:26;11.40;99.90
18091;DHT22;9172;49.948;9.208;2023-04-24T07:18:56;11.30;99.90
18091;DHT22;9172;49.948;9.208;2023-04-24T07:21:24;11.20;99.90
18091;DHT22;9172;49.948;9.208;2023-04-24T07:23:55;11.10;99.90
18091;DHT22;9172;49.948;9.208;2023-04-24T07:26:24;11.10;99.90
18091;DHT22;9172;49.948;9.208;2023-04-24T07:28:54;11.00;99.90
18091;DHT22;9172;49.948;9.208;2023-04-24T07:31:23;11.10;99.90
18091;DHT22;9172;49.948;9.208;2023-04-24T07:33:53;11.30;99.90
18091;DHT22;9172;49.948;9.208;2023-04-24T07:36:24;11.40;99.90
18091;DHT22;9172;49.948;9.208;2023-04-24T07:38:53;11.50;99.90
18091;DHT22;9172;49.948;9.208;2023-04-24T07:41:22;11.50;99.90
18091;DHT22;9172;49.948;9.208;2023-04-24T07:43:51;11.40;99.90
18091;DHT22;9172;49.948;9.208;2023-04-24T07:46:21;11.40;99.90
18091;DHT22;9172;49.948;9.208;2023-04-24T07:48:50;11.40;99.90
18091;DHT22;9172;49.948;9.208;2023-04-24T07:51:19;11.40;99.90
18091;DHT22;9172;49.948;9.208;2023-04-24T07:53:47;11.50;99.90
18091;DHT22;9172;49.948;9.208;2023-04-24T07:56:17;11.70;99.90
18091;DHT22;9172;49.948;9.208;2023-04-24T07:58:47;12.00;99.90
18091;DHT22;9172;49.948;9.208;2023-04-24T08:01:15;11.80;99.90
18091;DHT22;9172;49.948;9.208;2023-04-24T08:03:46;11.60;99.90
18091;DHT22;9172;49.948;9.208;2023-04-24T08:06:14;11.40;99.90
18091;DHT22;9172;49.948;9.208;2023-04-24T08:08:44;11.30;99.90
18091;DHT22;9172;49.948;9.208;2023-04-24T08:11:17;11.20;99.90
18091;DHT22;9172;49.948;9.208;2023-04-24T08:13:47;11.30;99.90
18091;DHT22;9172;49.948;9.208;2023-04-24T08:16:17;11.40;99.90
18091;DHT22;9172;49.948;9.208;2023-04-24T08:18:46;11.60;99.90
18091;DHT22;9172;49.948;9.208;2023-04-24T08:21:15;11.70;99.90
18091;DHT22;9172;49.948;9.208;2023-04-24T08:23:44;11.90;99.90
18091;DHT22;9172;49.948;9.208;2023-04-24T08:26:13;11.90;99.90
18091;DHT22;9172;49.948;9.208;2023-04-24T08:28:42;12.00;99.90
18091;DHT22;9172;49.948;9.208;2023-04-24T08:31:12;12.00;99.90
18091;DHT22;9172;49.948;9.208;2023-04-24T08:33:41;12.10;99.90
18091;DHT22;9172;49.948;9.208;2023-04-24T08:36:15;12.30;99.90
18091;DHT22;9172;49.948;9.208;2023-04-24T08:38:44;12.40;99.90
18091;DHT22;9172;49.948;9.208;2023-04-24T08:41:15;12.50;99.90
18091;DHT22;9172;49.948;9.208;2023-04-24T08:43:47;12.50;99.90
18091;DHT22;9172;49.948;9.208;2023-04-24T08:46:18;12.50;99.90
18091;DHT22;9172;49.948;9.208;2023-04-24T08:48:48;12.40;99.90
18091;DHT22;9172;49.948;9.208;2023-04-24T08:51:18;12.30;99.90
18091;DHT22;9172;49.948;9.208;2023-04-24T08:53:51;12.20;99.90
18091;DHT22;9172;49.948;9.208;2023-04-24T08:56:23;12.10;99.90
18091;DHT22;9172;49.948;9.208;2023-04-24T08:58:53;12.00;99.90
18091;DHT22;9172;49.948;9.208;2023-04-24T09:01:24;11.80;99.90
18091;DHT22;9172;49.948;9.208;2023-04-24T09:03:55;11.70;99.90
18091;DHT22;9172;49.948;9.208;2023-04-24T09:06:25;11.70;99.90
18091;DHT22;9172;49.948;9.208;2023-04-24T09:08:54;11.70;99.90
18091;DHT22;9172;49.948;9.208;2023-04-24T09:11:25;11.80;99.90
18091;DHT22;9172;49.948;9.208;2023-04-24T09:13:55;11.70;99.90
18091;DHT22;9172;49.948;9.208;2023-04-24T09:16:25;11.90;99.90
18091;DHT22;9172;49.948;9.208;2023-04-24T09:18:54;11.90;99.90
18091;DHT22;9172;49.948;9.208;2023-04-24T09:21:24;11.90;99.90
18091;DHT22;9172;49.948;9.208;2023-04-24T09:24:02;11.90;99.90
18091;DHT22;9172;49.948;9.208;2023-04-24T09:26:31;12.00;99.90
18091;DHT22;9172;49.948;9.208;2023-04-24T09:29:00;11.80;99.90
18091;DHT22;9172;49.948;9.208;2023-04-24T09:31:29;11.70;99.90
18091;DHT22;9172;49.948;9.208;2023-04-24T09:34:00;11.60;99.90
18091;DHT22;9172;49.948;9.208;2023-04-24T09:36:31;11.50;99.90
18091;DHT22;9172;49.948;9.208;2023-04-24T09:39:02;11.40;99.90
18091;DHT22;9172;49.948;9.208;2023-04-24T09:41:33;11.40;99.90
18091;DHT22;9172;49.948;9.208;2023-04-24T09:44:11;11.40;99.90
18091;DHT22;9172;49.948;9.208;2023-04-24T09:46:42;11.40;99.90
18091;DHT22;9172;49.948;9.208;2023-04-24T09:49:15;11.30;99.90
18091;DHT22;9172;49.948;9.208;2023-04-24T09:51:44;11.30;99.90
18091;DHT22;9172;49.948;9.208;2023-04-24T09:54:16;11.30;99.90
18091;DHT22;9172;49.948;9.208;2023-04-24T09:56:46;11.30;99.90
18091;DHT22;9172;49.948;9.208;2023-04-24T09:59:19;11.30;99.90
18091;DHT22;9172;49.948;9.208;2023-04-24T10:01:48;11.40;99.90
18091;DHT22;9172;49.948;9.208;2023-04-24T10:04:17;11.40;99.90
18091;DHT22;9172;49.948;9.208;2023-04-24T10:06:48;11.60;99.90
18091;DHT22;9172;49.948;9.208;2023-04-24T10:09:23;11.60;99.90
18091;DHT22;9172;49.948;9.208;2023-04-24T10:12:06;11.80;99.90
18091;DHT22;9172;49.948;9.208;2023-04-24T10:14:35;11.90;99.90
18091;DHT22;9172;49.948;9.208;2023-04-24T10:17:06;11.90;99.90
18091;DHT22;9172;49.948;9.208;2023-04-24T10:19:36;11.80;99.90
18091;DHT22;9172;49.948;9.208;2023-04-24T10:22:08;11.70;99.90
18091;DHT22;9172;49.948;9.208;2023-04-24T10:24:43;11.70;99.90
18091;DHT22;9172;49.948;9.208;2023-04-24T10:27:13;11.60;99.90
18091;DHT22;9172;49.948;9.208;2023-04-24T10:29:44;11.60;99.90
18091;DHT22;9172;49.948;9.208;2023-04-24T10:32:13;11.60;99.90
18091;DHT22;9172;49.948;9.208;2023-04-24T10:34:44;11.60;99.90
18091;DHT22;9172;49.948;9.208;2023-04-24T10:37:14;11.60;99.90
18091;DHT22;9172;49.948;9.208;2023-04-24T10:39:44;11.60;99.90
18091;DHT22;9172;49.948;9.208;2023-04-24T10:42:22;11.70;99.90
18091;DHT22;9172;49.948;9.208;2023-04-24T10:44:53;11.70;99.90
18091;DHT22;9172;49.948;9.208;2023-04-24T10:47:29;11.80;99.90
18091;DHT22;9172;49.948;9.208;2023-04-24T10:50:08;11.90;99.90
18091;DHT22;9172;49.948;9.208;2023-04-24T10:52:47;11.90;99.90
18091;DHT22;9172;49.948;9.208;2023-04-24T10:58:12;11.80;99.90
18091;DHT22;9172;49.948;9.208;2023-04-24T11:00:55;11.70;99.90
18091;DHT22;9172;49.948;9.208;2023-04-24T11:03:31;11.80;99.90
18091;DHT22;9172;49.948;9.208;2023-04-24T11:06:03;11.90;99.90
18091;DHT22;9172;49.948;9.208;2023-04-24T11:08:39;12.00;99.90
18091;DHT22;9172;49.948;9.208;2023-04-24T11:11:24;11.90;99.90
18091;DHT22;9172;49.948;9.208;2023-04-24T11:17:30;11.90;99.90
18091;DHT22;9172;49.948;9.208;2023-04-24T11:20:02;11.80;99.90
18091;DHT22;9172;49.948;9.208;2023-04-24T11:22:35;11.90;99.90
18091;DHT22;9172;49.948;9.208;2023-04-24T11:25:04;12.00;99.90
18091;DHT22;9172;49.948;9.208;2023-04-24T11:27:38;12.10;99.90
18091;DHT22;9172;49.948;9.208;2023-04-24T11:30:09;12.10;99.90
18091;DHT22;9172;49.948;9.208;2023-04-24T11:32:39;12.00;99.90
18091;DHT22;9172;49.948;9.208;2023-04-24T11:35:12;12.10;99.90
18091;DHT22;9172;49.948;9.208;2023-04-24T11:37:41;12.10;99.90
18091;DHT22;9172;49.948;9.208;2023-04-24T11:40:11;12.00;99.90
18091;DHT22;9172;49.948;9.208;2023-04-24T11:42:41;11.90;99.90
18091;DHT22;9172;49.948;9.208;2023-04-24T11:45:14;12.00;99.90
18091;DHT22;9172;49.948;9.208;2023-04-24T11:47:44;12.00;99.90
18091;DHT22;9172;49.948;9.208;2023-04-24T11:50:14;11.80;99.90
18091;DHT22;9172;49.948;9.208;2023-04-24T11:52:44;11.80;99.90
18091;DHT22;9172;49.948;9.208;2023-04-24T11:55:25;11.70;99.90
18091;DHT22;9172;49.948;9.208;2023-04-24T11:57:55;11.40;99.90
18091;DHT22;9172;49.948;9.208;2023-04-24T12:00:26;11.10;99.90
18091;DHT22;9172;49.948;9.208;2023-04-24T12:03:06;11.00;99.90
18091;DHT22;9172;49.948;9.208;2023-04-24T12:05:35;10.80;99.90
18091;DHT22;9172;49.948;9.208;2023-04-24T12:08:04;10.80;99.90
18091;DHT22;9172;49.948;9.208;2023-04-24T12:10:34;10.50;99.90
18091;DHT22;9172;49.948;9.208;2023-04-24T12:13:02;10.50;99.90
18091;DHT22;9172;49.948;9.208;2023-04-24T12:15:32;10.50;99.90
18091;DHT22;9172;49.948;9.208;2023-04-24T12:18:01;10.50;99.90
18091;DHT22;9172;49.948;9.208;2023-04-24T12:20:31;10.50;99.90
18091;DHT22;9172;49.948;9.208;2023-04-24T12:23:01;10.30;99.90
18091;DHT22;9172;49.948;9.208;2023-04-24T12:25:31;10.30;99.90
18091;DHT22;9172;49.948;9.208;2023-04-24T12:28:10;10.30;99.90
18091;DHT22;9172;49.948;9.208;2023-04-24T12:30:42;10.40;99.90
18091;DHT22;9172;49.948;9.208;2023-04-24T12:33:12;10.50;99.90
18091;DHT22;9172;49.948;9.208;2023-04-24T12:35:41;10.60;99.90
18091;DHT22;9172;49.948;9.208;2023-04-24T12:38:13;10.60;99.90
18091;DHT22;9172;49.948;9.208;2023-04-24T12:40:44;10.60;99.90
18091;DHT22;9172;49.948;9.208;2023-04-24T12:43:17;10.70;99.90
18091;DHT22;9172;49.948;9.208;2023-04-24T12:45:47;10.70;99.90
18091;DHT22;9172;49.948;9.208;2023-04-24T12:48:15;10.60;99.90
18091;DHT22;9172;49.948;9.208;2023-04-24T12:50:44;10.50;99.90
18091;DHT22;9172;49.948;9.208;2023-04-24T12:53:13;10.50;99.90
18091;DHT22;9172;49.948;9.208;2023-04-24T12:55:43;10.40;99.90
18091;DHT22;9172;49.948;9.208;2023-04-24T12:58:12;10.50;99.90
18091;DHT22;9172;49.948;9.208;2023-04-24T13:03:18;10.90;99.90
18091;DHT22;9172;49.948;9.208;2023-04-24T13:05:47;11.00;99.90
18091;DHT22;9172;49.948;9.208;2023-04-24T13:08:16;11.10;99.90
18091;DHT22;9172;49.948;9.208;2023-04-24T13:10:46;11.20;99.90
18091;DHT22;9172;49.948;9.208;2023-04-24T13:13:18;11.20;99.90
18091;DHT22;9172;49.948;9.208;2023-04-24T13:15:51;11.30;99.90
18091;DHT22;9172;49.948;9.208;2023-04-24T13:18:19;11.60;99.90
18091;DHT22;9172;49.948;9.208;2023-04-24T13:20:50;11.50;99.90
18091;DHT22;9172;49.948;9.208;2023-04-24T13:23:18;11.60;99.90
18091;DHT22;9172;49.948;9.208;2023-04-24T13:25:48;11.70;99.90
18091;DHT22;9172;49.948;9.208;2023-04-24T13:28:17;11.70;99.90
18091;DHT22;9172;49.948;9.208;2023-04-24T13:30:48;11.60;99.90
18091;DHT22;9172;49.948;9.208;2023-04-24T13:33:17;11.50;99.90
18091;DHT22;9172;49.948;9.208;2023-04-24T13:38:27;11.10;99.90
18091;DHT22;9172;49.948;9.208;2023-04-24T13:40:56;10.80;99.90
18091;DHT22;9172;49.948;9.208;2023-04-24T13:43:27;10.60;99.90
18091;DHT22;9172;49.948;9.208;2023-04-24T13:45:55;10.50;99.90
18091;DHT22;9172;49.948;9.208;2023-04-24T13:48:28;10.30;99.90
18091;DHT22;9172;49.948;9.208;2023-04-24T13:50:56;10.30;99.90
18091;DHT22;9172;49.948;9.208;2023-04-24T13:53:26;10.20;99.90
18091;DHT22;9172;49.948;9.208;2023-04-24T13:55:55;10.10;99.90
18091;DHT22;9172;49.948;9.208;2023-04-24T13:58:24;10.20;99.90
18091;DHT22;9172;49.948;9.208;2023-04-24T14:00:53;10.20;99.90
18091;DHT22;9172;49.948;9.208;2023-04-24T14:03:22;10.30;99.90
18091;DHT22;9172;49.948;9.208;2023-04-24T14:05:52;10.40;99.90
18091;DHT22;9172;49.948;9.208;2023-04-24T14:08:20;10.60;99.90
18091;DHT22;9172;49.948;9.208;2023-04-24T14:10:49;10.70;99.90
18091;DHT22;9172;49.948;9.208;2023-04-24T14:13:18;10.80;99.90
18091;DHT22;9172;49.948;9.208;2023-04-24T14:15:48;10.90;99.90
18091;DHT22;9172;49.948;9.208;2023-04-24T14:18:18;10.90;99.90
18091;DHT22;9172;49.948;9.208;2023-04-24T14:20:46;11.00;99.90
18091;DHT22;9172;49.948;9.208;2023-04-24T14:23:16;11.10;99.90
18091;DHT22;9172;49.948;9.208;2023-04-24T14:25:44;11.30;99.90
18091;DHT22;9172;49.948;9.208;2023-04-24T14:28:15;11.40;99.90
18091;DHT22;9172;49.948;9.208;2023-04-24T14:30:44;11.50;99.90
18091;DHT22;9172;49.948;9.208;2023-04-24T14:33:14;11.60;99.90
18091;DHT22;9172;49.948;9.208;2023-04-24T14:35:42;11.70;99.90
18091;DHT22;9172;49.948;9.208;2023-04-24T14:38:11;11.70;99.90
18091;DHT22;9172;49.948;9.208;2023-04-24T14:40:41;11.60;99.90
18091;DHT22;9172;49.948;9.208;2023-04-24T14:43:10;11.50;99.90
18091;DHT22;9172;49.948;9.208;2023-04-24T14:45:39;11.50;99.90
18091;DHT22;9172;49.948;9.208;2023-04-24T14:48:09;11.50;99.90
18091;DHT22;9172;49.948;9.208;2023-04-24T14:50:38;11.40;99.90
18091;DHT22;9172;49.948;9.208;2023-04-24T14:53:09;11.40;99.90
18091;DHT22;9172;49.948;9.208;2023-04-24T14:55:38;11.40;99.90
18091;DHT22;9172;49.948;9.208;2023-04-24T14:58:07;11.40;99.90
18091;DHT22;9172;49.948;9.208;2023-04-24T15:00:36;11.40;99.90
18091;DHT22;9172;49.948;9.208;2023-04-24T15:03:06;11.40;99.90
18091;DHT22;9172;49.948;9.208;2023-04-24T15:05:35;11.50;99.90
18091;DHT22;9172;49.948;9.208;2023-04-24T15:08:05;11.50;99.90
18091;DHT22;9172;49.948;9.208;2023-04-24T15:10:35;11.50;99.90
18091;DHT22;9172;49.948;9.208;2023-04-24T15:13:04;11.50;99.90
18091;DHT22;9172;49.948;9.208;2023-04-24T15:15:34;11.50;99.90
18091;DHT22;9172;49.948;9.208;2023-04-24T15:18:03;11.40;99.90
18091;DHT22;9172;49.948;9.208;2023-04-24T15:23:28;11.30;99.90
18091;DHT22;9172;49.948;9.208;2023-04-24T15:25:56;11.40;99.90
18091;DHT22;9172;49.948;9.208;2023-04-24T15:28:25;11.30;99.90
18091;DHT22;9172;49.948;9.208;2023-04-24T15:30:55;11.30;99.90
18091;DHT22;9172;49.948;9.208;2023-04-24T15:33:27;11.20;99.90
18091;DHT22;9172;49.948;9.208;2023-04-24T15:35:56;11.30;99.90
18091;DHT22;9172;49.948;9.208;2023-04-24T15:38:25;11.30;99.90
18091;DHT22;9172;49.948;9.208;2023-04-24T15:40:55;11.40;99.90
18091;DHT22;9172;49.948;9.208;2023-04-24T15:46:13;11.60;99.90
18091;DHT22;9172;49.948;9.208;2023-04-24T15:48:43;11.60;99.90
18091;DHT22;9172;49.948;9.208;2023-04-24T15:51:12;11.60;99.90
18091;DHT22;9172;49.948;9.208;2023-04-24T15:53:42;11.60;99.90
18091;DHT22;9172;49.948;9.208;2023-04-24T15:56:11;11.70;99.90
18091;DHT22;9172;49.948;9.208;2023-04-24T15:58:40;11.70;99.90
18091;DHT22;9172;49.948;9.208;2023-04-24T16:01:10;11.70;99.90
18091;DHT22;9172;49.948;9.208;2023-04-24T16:03:38;11.70;99.90
18091;DHT22;9172;49.948;9.208;2023-04-24T16:06:07;11.70;99.90
18091;DHT22;9172;49.948;9.208;2023-04-24T16:08:36;11.80;99.90
18091;DHT22;9172;49.948;9.208;2023-04-24T16:11:06;11.80;99.90
18091;DHT22;9172;49.948;9.208;2023-04-24T16:13:36;11.70;99.90
18091;DHT22;9172;49.948;9.208;2023-04-24T16:16:06;11.70;99.90
18091;DHT22;9172;49.948;9.208;2023-04-24T16:18:35;11.70;99.90
18091;DHT22;9172;49.948;9.208;2023-04-24T16:21:06;11.60;99.90
18091;DHT22;9172;49.948;9.208;2023-04-24T16:23:36;11.70;99.90
18091;DHT22;9172;49.948;9.208;2023-04-24T16:26:05;11.60;99.90